createdAt,value
2022-07-28T00:00:29.971Z,96.48
2022-07-28T00:01:29.978Z,96.58
2022-07-28T00:02:30.157Z,96.07
2022-07-28T00:03:29.942Z,96.38
2022-07-28T00:04:29.853Z,96.58
2022-07-28T00:05:29.812Z,96.89
2022-07-28T00:06:29.792Z,97.20
2022-07-28T00:07:29.820Z,96.89
2022-07-28T00:08:29.781Z,96.58
2022-07-28T00:09:29.747Z,96.79
2022-07-28T00:10:29.686Z,96.99
2022-07-28T00:11:29.640Z,96.99
2022-07-28T00:12:29.577Z,97.20
2022-07-28T00:13:29.615Z,97.34
2022-07-28T00:14:29.548Z,97.30
2022-07-28T00:15:29.520Z,97.40
2022-07-28T00:16:29.491Z,97.40
2022-07-28T00:17:29.417Z,97.65
2022-07-28T00:18:29.802Z,97.91
2022-07-28T00:19:29.347Z,97.91
2022-07-28T00:20:29.322Z,97.96
2022-07-28T00:21:29.302Z,97.96
2022-07-28T00:22:29.264Z,97.91
2022-07-28T00:23:39.221Z,97.75
2022-07-28T00:24:29.218Z,97.61
2022-07-28T00:25:29.153Z,97.61
2022-07-28T00:26:29.210Z,97.55
2022-07-28T00:27:29.122Z,97.71
2022-07-28T00:28:29.112Z,98.07
2022-07-28T00:29:50.496Z,97.96
2022-07-28T00:30:29.002Z,97.96
2022-07-28T00:31:29.699Z,98.07
2022-07-28T00:32:29.610Z,97.75
2022-07-28T00:33:29.001Z,97.75
2022-07-28T00:34:28.877Z,97.96
2022-07-28T00:35:30.822Z,98.27
2022-07-28T00:36:28.806Z,98.27
2022-07-28T00:37:28.813Z,97.96
2022-07-28T00:38:28.889Z,98.11
2022-07-28T00:39:28.769Z,98.16
2022-07-28T00:40:28.685Z,97.96
2022-07-28T00:41:28.635Z,98.37
2022-07-28T00:42:28.598Z,98.37
2022-07-28T00:43:28.592Z,98.11
2022-07-28T00:44:28.615Z,98.11
2022-07-28T00:45:28.568Z,98.11
2022-07-28T00:46:28.543Z,98.11
2022-07-28T00:47:33.928Z,98.11
2022-07-28T00:48:28.421Z,98.00
2022-07-28T00:49:28.376Z,98.21
2022-07-28T00:50:28.388Z,98.00
2022-07-28T00:51:28.314Z,98.21
2022-07-28T00:52:28.305Z,98.93
2022-07-28T00:53:28.238Z,98.83
2022-07-28T00:54:28.214Z,99.13
2022-07-28T00:55:28.247Z,98.72
2022-07-28T00:56:28.183Z,98.72
2022-07-28T00:57:28.135Z,99.49
2022-07-28T00:58:28.077Z,98.93
2022-07-28T00:59:28.060Z,98.77
2022-07-28T01:00:28.076Z,99.49
2022-07-28T01:01:28.071Z,99.49
2022-07-28T01:02:28.143Z,98.67
2022-07-28T01:03:27.936Z,98.57
2022-07-28T01:04:27.879Z,99.18
2022-07-28T01:05:43.562Z,99.18
2022-07-28T01:06:27.962Z,99.18
2022-07-28T01:07:27.811Z,99.13
2022-07-28T01:08:27.764Z,99.28
2022-07-28T01:09:27.729Z,99.18
2022-07-28T01:10:27.692Z,99.28
2022-07-28T01:11:27.722Z,99.18
2022-07-28T01:12:27.684Z,99.08
2022-07-28T01:13:30.060Z,99.38
2022-07-28T01:14:27.552Z,99.08
2022-07-28T01:15:27.526Z,99.12
2022-07-28T01:16:27.761Z,98.87
2022-07-28T01:17:27.477Z,99.22
2022-07-28T01:18:27.420Z,99.12
2022-07-28T01:19:27.385Z,99.22
2022-07-28T01:20:27.353Z,99.22
2022-07-28T01:21:27.350Z,99.22
2022-07-28T01:22:28.232Z,99.08
2022-07-28T01:23:27.259Z,99.43
2022-07-28T01:24:27.318Z,99.43
2022-07-28T01:25:27.212Z,99.43
2022-07-28T01:26:27.153Z,99.33
2022-07-28T01:27:27.357Z,99.63
2022-07-28T01:28:27.194Z,99.54
2022-07-28T01:29:27.151Z,99.84
2022-07-28T01:30:27.762Z,99.99
2022-07-28T01:31:27.055Z,99.84
2022-07-28T01:32:26.968Z,99.99
2022-07-28T01:33:27.005Z,99.95
2022-07-28T01:34:26.906Z,99.95
2022-07-28T01:35:26.863Z,99.99
2022-07-28T01:36:26.837Z,99.95
2022-07-28T01:37:26.902Z,99.84
2022-07-28T01:38:26.771Z,99.99
2022-07-28T01:39:26.788Z,99.95
2022-07-28T01:40:26.700Z,99.58
2022-07-28T01:41:26.684Z,99.74
2022-07-28T01:42:26.717Z,99.68
2022-07-28T01:43:26.716Z,99.48
2022-07-28T01:44:26.567Z,99.48
2022-07-28T01:45:26.530Z,99.48
2022-07-28T01:46:26.540Z,99.48
2022-07-28T01:47:26.550Z,99.68
2022-07-28T01:48:26.499Z,99.89
2022-07-28T01:49:26.556Z,99.99
2022-07-28T01:50:26.382Z,99.99
2022-07-28T01:51:26.346Z,99.99
2022-07-28T01:52:29.236Z,99.99
2022-07-28T01:53:26.327Z,99.99
2022-07-28T01:54:26.320Z,99.89
2022-07-28T01:55:26.202Z,99.99
2022-07-28T01:56:33.130Z,99.99
2022-07-28T01:57:26.160Z,99.99
2022-07-28T01:58:26.137Z,99.99
2022-07-28T01:59:26.188Z,99.99
2022-07-28T02:00:26.115Z,99.99
2022-07-28T02:01:26.059Z,99.99
2022-07-28T02:02:25.973Z,99.99
2022-07-28T02:03:25.942Z,99.99
2022-07-28T02:04:25.905Z,99.99
2022-07-28T02:05:25.966Z,99.99
2022-07-28T02:06:25.899Z,99.99
2022-07-28T02:07:25.804Z,99.99
2022-07-28T02:08:25.774Z,99.99
2022-07-28T02:09:26.634Z,99.99
2022-07-28T02:10:25.718Z,99.99
2022-07-28T02:11:25.737Z,99.99
2022-07-28T02:12:25.650Z,99.99
2022-07-28T02:13:26.130Z,99.99
2022-07-28T02:14:25.583Z,99.99
2022-07-28T02:15:25.602Z,99.99
2022-07-28T02:16:25.592Z,99.89
2022-07-28T02:17:25.468Z,99.99
2022-07-28T02:18:25.451Z,99.99
2022-07-28T02:19:25.439Z,99.99
2022-07-28T02:20:25.456Z,99.99
2022-07-28T02:21:25.361Z,99.99
2022-07-28T02:22:25.324Z,99.99
2022-07-28T02:23:25.319Z,99.99
2022-07-28T02:24:25.304Z,99.93
2022-07-28T02:25:25.345Z,99.99
2022-07-28T02:26:25.233Z,99.99
2022-07-28T02:27:25.203Z,99.99
2022-07-28T02:28:25.127Z,99.99
2022-07-28T02:29:49.020Z,99.99
2022-07-28T02:30:25.053Z,99.99
2022-07-28T02:31:25.253Z,99.99
2022-07-28T02:32:27.699Z,99.99
2022-07-28T02:33:58.157Z,99.99
2022-07-28T02:34:27.845Z,99.99
2022-07-28T02:35:24.880Z,99.99
2022-07-28T02:36:24.907Z,99.99
2022-07-28T02:37:24.807Z,99.99
2022-07-28T02:38:24.779Z,99.99
2022-07-28T02:39:24.746Z,99.99
2022-07-28T02:40:24.722Z,99.99
2022-07-28T02:41:24.805Z,99.99
2022-07-28T02:42:24.646Z,99.99
2022-07-28T02:43:24.633Z,99.99
2022-07-28T02:44:24.587Z,99.99
2022-07-28T02:45:24.563Z,99.99
2022-07-28T02:46:24.658Z,99.99
2022-07-28T02:47:24.530Z,99.99
2022-07-28T02:48:24.450Z,99.99
2022-07-28T02:49:24.475Z,99.99
2022-07-28T02:50:24.386Z,99.99
2022-07-28T02:51:24.358Z,99.99
2022-07-28T02:52:24.383Z,99.99
2022-07-28T02:53:24.359Z,99.99
2022-07-28T02:54:24.253Z,99.99
2022-07-28T02:55:24.218Z,99.99
2022-07-28T02:56:24.176Z,99.99
2022-07-28T02:57:24.154Z,99.99
2022-07-28T02:58:24.188Z,99.99
2022-07-28T02:59:24.096Z,99.99
2022-07-28T03:00:24.052Z,99.99
2022-07-28T03:01:24.052Z,99.99
2022-07-28T03:02:23.986Z,99.99
2022-07-28T03:03:24.019Z,99.99
2022-07-28T03:04:23.914Z,99.99
2022-07-28T03:05:23.940Z,99.99
2022-07-28T03:06:28.393Z,99.99
2022-07-28T03:07:23.817Z,99.99
2022-07-28T03:08:23.859Z,99.99
2022-07-28T03:09:23.751Z,99.99
2022-07-28T03:10:33.350Z,99.99
2022-07-28T03:11:23.714Z,99.99
2022-07-28T03:12:23.658Z,99.99
2022-07-28T03:13:23.625Z,99.99
2022-07-28T03:14:23.652Z,99.99
2022-07-28T03:15:23.745Z,99.99
2022-07-28T03:16:23.571Z,99.99
2022-07-28T03:17:23.504Z,99.99
2022-07-28T03:18:23.476Z,99.99
2022-07-28T03:19:23.469Z,99.99
2022-07-28T03:20:23.397Z,99.99
2022-07-28T03:21:23.357Z,99.99
2022-07-28T03:22:23.315Z,99.99
2022-07-28T03:23:23.289Z,99.99
2022-07-28T03:24:23.320Z,99.99
2022-07-28T03:25:23.216Z,99.99
2022-07-28T03:26:23.196Z,99.99
2022-07-28T03:27:23.165Z,99.99
2022-07-28T03:28:23.134Z,99.99
2022-07-28T03:29:23.203Z,99.99
2022-07-28T03:30:23.091Z,99.99
2022-07-28T03:31:23.135Z,99.99
2022-07-28T03:32:22.979Z,99.99
2022-07-28T03:33:23.031Z,99.99
2022-07-28T03:34:22.915Z,99.99
2022-07-28T03:35:22.951Z,99.99
2022-07-28T03:36:22.916Z,99.99
2022-07-28T03:37:22.829Z,99.99
2022-07-28T03:38:22.781Z,99.99
2022-07-28T03:39:22.751Z,99.99
2022-07-28T03:40:22.784Z,99.99
2022-07-28T03:41:22.677Z,99.99
2022-07-28T03:42:22.650Z,99.99
2022-07-28T03:43:22.618Z,99.99
2022-07-28T03:44:26.954Z,99.99
2022-07-28T03:45:22.637Z,99.99
2022-07-28T03:46:22.561Z,99.99
2022-07-28T03:47:22.491Z,99.99
2022-07-28T03:48:22.456Z,99.99
2022-07-28T03:49:22.478Z,99.99
2022-07-28T03:50:22.383Z,99.99
2022-07-28T03:51:22.418Z,99.99
2022-07-28T03:52:22.314Z,99.99
2022-07-28T03:53:22.293Z,99.99
2022-07-28T03:54:22.250Z,99.99
2022-07-28T03:55:22.231Z,99.99
2022-07-28T03:56:22.246Z,99.99
2022-07-28T03:57:22.174Z,99.99
2022-07-28T03:58:22.122Z,99.99
2022-07-28T03:59:22.103Z,99.99
2022-07-28T04:00:22.050Z,99.99
2022-07-28T04:01:22.104Z,99.99
2022-07-28T04:02:22.074Z,99.99
2022-07-28T04:03:35.745Z,99.99
2022-07-28T04:04:21.915Z,99.99
2022-07-28T04:05:21.880Z,99.95
2022-07-28T04:06:21.913Z,99.79
2022-07-28T04:07:21.869Z,99.43
2022-07-28T04:08:21.789Z,99.43
2022-07-28T04:09:21.753Z,99.12
2022-07-28T04:10:21.732Z,99.33
2022-07-28T04:11:21.740Z,99.12
2022-07-28T04:12:21.708Z,98.92
2022-07-28T04:13:21.614Z,99.02
2022-07-28T04:14:22.079Z,98.87
2022-07-28T04:15:21.561Z,99.28
2022-07-28T04:16:22.337Z,99.38
2022-07-28T04:17:21.589Z,98.83
2022-07-28T04:18:21.455Z,99.19
2022-07-28T04:19:21.415Z,98.94
2022-07-28T04:20:21.392Z,98.18
2022-07-28T04:21:21.363Z,98.03
2022-07-28T04:22:21.317Z,97.31
2022-07-28T04:23:21.355Z,96.55
2022-07-28T04:24:21.324Z,96.19
2022-07-28T04:25:21.259Z,95.63
2022-07-28T04:26:21.191Z,95.84
2022-07-28T04:27:21.179Z,95.38
2022-07-28T04:28:21.189Z,95.28
2022-07-28T04:29:27.121Z,95.03
2022-07-28T04:30:21.078Z,94.73
2022-07-28T04:31:21.117Z,93.05
2022-07-28T04:32:20.999Z,91.76
2022-07-28T04:33:21.032Z,92.47
2022-07-28T04:34:20.998Z,92.58
2022-07-28T04:35:20.896Z,93.50
2022-07-28T04:36:20.899Z,93.40
2022-07-28T04:37:20.839Z,93.60
2022-07-28T04:38:20.852Z,93.60
2022-07-28T04:39:20.842Z,93.60
2022-07-28T04:40:20.741Z,92.88
2022-07-28T04:41:20.701Z,91.96
2022-07-28T04:42:20.676Z,91.76
2022-07-28T04:43:22.925Z,91.56
2022-07-28T04:44:20.606Z,91.86
2022-07-28T04:45:20.638Z,92.07
2022-07-28T04:46:20.611Z,91.76
2022-07-28T04:47:20.518Z,91.46
2022-07-28T04:48:20.476Z,91.86
2022-07-28T04:49:20.497Z,91.76
2022-07-28T04:50:20.474Z,91.96
2022-07-28T04:51:20.441Z,91.76
2022-07-28T04:52:20.351Z,92.13
2022-07-28T04:53:20.422Z,92.13
2022-07-28T04:54:26.084Z,92.33
2022-07-28T04:55:20.252Z,92.33
2022-07-28T04:56:20.289Z,92.02
2022-07-28T04:57:20.220Z,91.20
2022-07-28T04:58:20.162Z,91.61
2022-07-28T04:59:20.137Z,91.92
2022-07-28T05:00:20.092Z,92.02
2022-07-28T05:01:20.192Z,91.57
2022-07-28T05:02:20.032Z,91.78
2022-07-28T05:03:20.004Z,91.37
2022-07-28T05:04:20.068Z,91.27
2022-07-28T05:05:19.930Z,92.39
2022-07-28T05:06:19.971Z,91.33
2022-07-28T05:07:19.930Z,91.53
2022-07-28T05:08:19.839Z,91.83
2022-07-28T05:09:19.820Z,91.74
2022-07-28T05:10:19.773Z,91.59
2022-07-28T05:11:19.748Z,91.14
2022-07-28T05:12:19.760Z,91.35
2022-07-28T05:13:19.683Z,90.89
2022-07-28T05:14:19.657Z,90.55
2022-07-28T05:15:19.620Z,90.14
2022-07-28T05:16:19.637Z,89.83
2022-07-28T05:17:19.620Z,89.48
2022-07-28T05:18:19.534Z,89.59
2022-07-28T05:19:19.493Z,89.03
2022-07-28T05:20:19.458Z,88.32
2022-07-28T05:21:22.410Z,88.24
2022-07-28T05:22:19.584Z,85.98
2022-07-28T05:23:19.371Z,83.39
2022-07-28T05:24:19.336Z,80.71
2022-07-28T05:25:19.339Z,77.90
2022-07-28T05:26:19.268Z,76.04
2022-07-28T05:27:19.271Z,75.04
2022-07-28T05:28:19.439Z,74.93
2022-07-28T05:29:19.203Z,74.16
2022-07-28T05:30:19.166Z,75.10
2022-07-28T05:31:19.220Z,75.34
2022-07-28T05:32:19.115Z,76.19
2022-07-28T05:33:19.403Z,77.01
2022-07-28T05:34:19.035Z,77.95
2022-07-28T05:35:19.787Z,79.27
2022-07-28T05:36:19.156Z,79.92
2022-07-28T05:37:18.962Z,80.53
2022-07-28T05:38:18.955Z,81.18
2022-07-28T05:39:18.977Z,81.07
2022-07-28T05:40:18.835Z,81.07
2022-07-28T05:41:18.816Z,81.99
2022-07-28T05:42:18.781Z,82.12
2022-07-28T05:43:18.768Z,82.33
2022-07-28T05:44:18.720Z,82.03
2022-07-28T05:45:18.739Z,82.12
2022-07-28T05:46:18.707Z,81.62
2022-07-28T05:47:18.619Z,82.23
2022-07-28T05:48:18.591Z,82.03
2022-07-28T05:49:21.706Z,81.52
2022-07-28T05:50:18.601Z,82.64
2022-07-28T05:51:18.500Z,81.82
2022-07-28T05:52:18.465Z,80.71
2022-07-28T05:53:18.453Z,80.91
2022-07-28T05:54:18.408Z,81.01
2022-07-28T05:55:18.451Z,80.80
2022-07-28T05:56:18.349Z,80.87
2022-07-28T05:57:18.323Z,80.97
2022-07-28T05:58:18.291Z,80.97
2022-07-28T05:59:18.260Z,81.04
2022-07-28T06:00:18.224Z,80.93
2022-07-28T06:01:18.300Z,80.73
2022-07-28T06:02:18.258Z,79.82
2022-07-28T06:03:18.131Z,79.82
2022-07-28T06:04:26.597Z,79.07
2022-07-28T06:05:18.074Z,78.36
2022-07-28T06:06:18.042Z,78.26
2022-07-28T06:07:18.085Z,78.26
2022-07-28T06:08:17.980Z,77.34
2022-07-28T06:09:17.985Z,77.45
2022-07-28T06:10:17.943Z,77.04
2022-07-28T06:11:22.784Z,76.64
2022-07-28T06:12:17.907Z,76.20
2022-07-28T06:13:17.889Z,76.29
2022-07-28T06:14:18.328Z,76.40
2022-07-28T06:15:17.777Z,76.36
2022-07-28T06:16:17.836Z,75.96
2022-07-28T06:17:17.711Z,75.45
2022-07-28T06:18:17.877Z,74.13
2022-07-28T06:19:17.662Z,75.25
2022-07-28T06:20:17.686Z,74.81
2022-07-28T06:21:17.590Z,74.20
2022-07-28T06:22:17.562Z,74.00
2022-07-28T06:23:17.548Z,73.86
2022-07-28T06:24:18.014Z,72.95
2022-07-28T06:25:17.475Z,72.75
2022-07-28T06:26:17.440Z,72.95
2022-07-28T06:27:17.410Z,73.66
2022-07-28T06:28:17.379Z,73.02
2022-07-28T06:29:17.352Z,71.77
2022-07-28T06:30:17.384Z,71.09
2022-07-28T06:31:17.362Z,72.17
2022-07-28T06:32:17.291Z,71.97
2022-07-28T06:33:17.514Z,72.08
2022-07-28T06:34:17.492Z,71.84
2022-07-28T06:35:17.225Z,71.37
2022-07-28T06:36:17.145Z,70.93
2022-07-28T06:37:17.116Z,70.83
2022-07-28T06:38:17.088Z,71.44
2022-07-28T06:39:17.054Z,71.73
2022-07-28T06:40:17.095Z,71.53
2022-07-28T06:41:16.990Z,71.33
2022-07-28T06:42:16.968Z,71.03
2022-07-28T06:43:16.964Z,70.62
2022-07-28T06:44:17.257Z,70.32
2022-07-28T06:45:19.553Z,70.89
2022-07-28T06:46:17.149Z,70.49
2022-07-28T06:47:16.904Z,70.42
2022-07-28T06:48:16.794Z,69.98
2022-07-28T06:49:17.211Z,69.89
2022-07-28T06:50:25.932Z,69.95
2022-07-28T06:51:16.700Z,69.18
2022-07-28T06:52:16.748Z,69.24
2022-07-28T06:53:16.644Z,69.55
2022-07-28T06:54:16.901Z,69.95
2022-07-28T06:55:16.593Z,69.55
2022-07-28T06:56:16.870Z,69.75
2022-07-28T06:57:16.862Z,69.52
2022-07-28T06:58:16.622Z,69.62
2022-07-28T06:59:16.875Z,68.41
2022-07-28T07:00:16.447Z,68.98
2022-07-28T07:01:16.450Z,69.08
2022-07-28T07:02:16.389Z,68.77
2022-07-28T07:03:16.434Z,67.67
2022-07-28T07:04:16.773Z,67.47
2022-07-28T07:05:16.303Z,67.27
2022-07-28T07:06:16.274Z,66.76
2022-07-28T07:07:17.298Z,66.96
2022-07-28T07:08:16.218Z,67.77
2022-07-28T07:09:16.240Z,68.41
2022-07-28T07:10:16.160Z,68.48
2022-07-28T07:11:16.146Z,68.48
2022-07-28T07:12:16.098Z,68.14
2022-07-28T07:13:16.221Z,68.34
2022-07-28T07:14:16.406Z,67.33
2022-07-28T07:15:16.014Z,67.03
2022-07-28T07:16:16.075Z,67.63
2022-07-28T07:17:15.985Z,67.07
2022-07-28T07:18:16.378Z,67.54
2022-07-28T07:19:16.166Z,67.54
2022-07-28T07:20:17.213Z,66.83
2022-07-28T07:21:15.850Z,67.00
2022-07-28T07:22:15.815Z,66.09
2022-07-28T07:23:15.789Z,65.86
2022-07-28T07:24:16.090Z,65.53
2022-07-28T07:25:15.737Z,65.93
2022-07-28T07:26:16.317Z,65.33
2022-07-28T07:27:15.715Z,64.59
2022-07-28T07:28:15.661Z,64.06
2022-07-28T07:29:15.720Z,64.13
2022-07-28T07:30:15.600Z,62.82
2022-07-28T07:31:15.623Z,63.42
2022-07-28T07:32:15.536Z,63.09
2022-07-28T07:33:15.513Z,62.89
2022-07-28T07:34:15.678Z,63.09
2022-07-28T07:35:15.513Z,62.19
2022-07-28T07:36:15.479Z,62.59
2022-07-28T07:37:15.408Z,62.69
2022-07-28T07:38:15.379Z,62.99
2022-07-28T07:39:15.351Z,62.19
2022-07-28T07:40:15.401Z,62.06
2022-07-28T07:41:15.299Z,61.43
2022-07-28T07:42:15.275Z,61.52
2022-07-28T07:43:15.247Z,62.16
2022-07-28T07:44:15.557Z,61.46
2022-07-28T07:45:15.190Z,62.06
2022-07-28T07:46:15.284Z,62.26
2022-07-28T07:47:15.153Z,61.96
2022-07-28T07:48:15.110Z,62.26
2022-07-28T07:49:15.227Z,62.03
2022-07-28T07:50:15.060Z,62.03
2022-07-28T07:51:15.765Z,61.70
2022-07-28T07:52:15.063Z,62.20
2022-07-28T07:53:14.980Z,61.30
2022-07-28T07:54:15.252Z,61.97
2022-07-28T07:55:14.927Z,61.07
2022-07-28T07:56:14.975Z,61.19
2022-07-28T07:57:14.885Z,61.13
2022-07-28T07:58:14.848Z,62.13
2022-07-28T07:59:14.827Z,61.72
2022-07-28T08:00:29.313Z,61.22
2022-07-28T08:01:21.776Z,61.83
2022-07-28T08:02:14.824Z,62.33
2022-07-28T08:03:14.720Z,61.43
2022-07-28T08:04:15.254Z,61.93
2022-07-28T08:05:14.674Z,61.33
2022-07-28T08:06:14.645Z,61.50
2022-07-28T08:07:14.686Z,61.60
2022-07-28T08:08:14.594Z,61.30
2022-07-28T08:09:14.566Z,60.36
2022-07-28T08:10:14.543Z,61.27
2022-07-28T08:11:14.514Z,60.60
2022-07-28T08:12:14.485Z,61.19
2022-07-28T08:13:14.669Z,62.30
2022-07-28T08:14:14.796Z,61.13
2022-07-28T08:15:14.412Z,60.82
2022-07-28T08:16:14.427Z,61.43
2022-07-28T08:17:14.361Z,61.13
2022-07-28T08:18:14.332Z,61.43
2022-07-28T08:19:14.385Z,61.50
2022-07-28T08:20:14.290Z,61.30
2022-07-28T08:21:14.261Z,61.36
2022-07-28T08:22:14.233Z,61.04
2022-07-28T08:23:14.205Z,60.64
2022-07-28T08:24:27.608Z,59.41
2022-07-28T08:25:14.153Z,59.41
2022-07-28T08:26:14.129Z,59.78
2022-07-28T08:27:14.100Z,59.28
2022-07-28T08:28:14.080Z,59.08
2022-07-28T08:29:14.110Z,59.28
2022-07-28T08:30:14.026Z,58.37
2022-07-28T08:31:14.081Z,58.45
2022-07-28T08:32:13.984Z,58.55
2022-07-28T08:33:13.952Z,58.45
2022-07-28T08:34:26.358Z,57.85
2022-07-28T08:35:32.417Z,57.32
2022-07-28T08:36:13.922Z,57.22
2022-07-28T08:37:13.893Z,57.12
2022-07-28T08:38:13.847Z,56.82
2022-07-28T08:39:13.854Z,56.82
2022-07-28T08:40:13.832Z,56.72
2022-07-28T08:41:13.751Z,56.82
2022-07-28T08:42:13.742Z,56.72
2022-07-28T08:43:13.701Z,56.70
2022-07-28T08:44:13.939Z,55.69
2022-07-28T08:45:13.703Z,56.70
2022-07-28T08:46:13.675Z,57.19
2022-07-28T08:47:13.599Z,56.92
2022-07-28T08:48:13.609Z,57.42
2022-07-28T08:49:14.900Z,57.32
2022-07-28T08:50:13.727Z,58.42
2022-07-28T08:51:13.502Z,57.50
2022-07-28T08:52:13.479Z,57.59
2022-07-28T08:53:13.495Z,56.87
2022-07-28T08:54:13.680Z,56.99
2022-07-28T08:55:19.141Z,55.97
2022-07-28T08:56:13.434Z,56.07
2022-07-28T08:57:13.363Z,55.57
2022-07-28T08:58:13.332Z,55.77
2022-07-28T08:59:13.331Z,57.46
2022-07-28T09:00:13.284Z,57.42
2022-07-28T09:01:13.927Z,58.15
2022-07-28T09:02:13.353Z,58.78
2022-07-28T09:03:13.319Z,58.68
2022-07-28T09:04:13.470Z,58.48
2022-07-28T09:05:13.198Z,58.48
2022-07-28T09:06:13.160Z,58.37
2022-07-28T09:07:13.230Z,58.45
2022-07-28T09:08:13.156Z,55.85
2022-07-28T09:09:13.103Z,55.92
2022-07-28T09:10:13.095Z,55.72
2022-07-28T09:11:13.022Z,55.32
2022-07-28T09:12:13.044Z,54.79
2022-07-28T09:13:13.431Z,55.29
2022-07-28T09:14:13.205Z,55.40
2022-07-28T09:15:12.976Z,55.09
2022-07-28T09:16:13.003Z,54.97
2022-07-28T09:17:12.946Z,54.69
2022-07-28T09:18:12.893Z,54.84
2022-07-28T09:19:12.873Z,55.24
2022-07-28T09:20:12.874Z,54.14
2022-07-28T09:21:12.769Z,54.44
2022-07-28T09:22:12.748Z,54.54
2022-07-28T09:23:41.798Z,54.94
2022-07-28T09:24:12.970Z,55.14
2022-07-28T09:25:12.689Z,54.64
2022-07-28T09:26:12.985Z,54.34
2022-07-28T09:27:12.627Z,55.04
2022-07-28T09:28:12.596Z,54.84
2022-07-28T09:29:12.650Z,54.64
2022-07-28T09:30:12.574Z,54.57
2022-07-28T09:31:12.555Z,54.97
2022-07-28T09:32:12.500Z,55.07
2022-07-28T09:33:12.480Z,55.47
2022-07-28T09:34:12.900Z,55.64
2022-07-28T09:35:12.518Z,56.04
2022-07-28T09:36:12.466Z,55.54
2022-07-28T09:37:12.385Z,55.34
2022-07-28T09:38:12.367Z,55.24
2022-07-28T09:39:12.333Z,55.34
2022-07-28T09:40:12.313Z,55.34
2022-07-28T09:41:12.361Z,56.14
2022-07-28T09:42:12.263Z,55.44
2022-07-28T09:43:12.235Z,55.14
2022-07-28T09:44:12.504Z,55.87
2022-07-28T09:45:23.041Z,55.66
2022-07-28T09:46:12.385Z,57.17
2022-07-28T09:47:12.553Z,56.99
2022-07-28T09:48:12.253Z,56.99
2022-07-28T09:49:12.216Z,57.17
2022-07-28T09:50:12.071Z,56.77
2022-07-28T09:51:15.258Z,56.96
2022-07-28T09:52:12.109Z,56.59
2022-07-28T09:53:11.996Z,56.77
2022-07-28T09:54:12.341Z,57.17
2022-07-28T09:55:11.944Z,57.17
2022-07-28T09:56:11.942Z,56.99
2022-07-28T09:57:11.945Z,56.99
2022-07-28T09:58:11.926Z,57.50
2022-07-28T09:59:12.853Z,55.69
2022-07-28T10:00:11.821Z,56.42
2022-07-28T10:01:12.349Z,56.85
2022-07-28T10:02:11.910Z,56.55
2022-07-28T10:03:11.814Z,57.15
2022-07-28T10:04:11.737Z,57.45
2022-07-28T10:05:11.716Z,57.35
2022-07-28T10:06:11.678Z,57.45
2022-07-28T10:07:11.697Z,58.12
2022-07-28T10:08:11.835Z,58.05
2022-07-28T10:09:11.701Z,57.42
2022-07-28T10:10:11.572Z,57.52
2022-07-28T10:11:11.554Z,57.29
2022-07-28T10:12:11.519Z,56.99
2022-07-28T10:13:11.495Z,56.49
2022-07-28T10:14:11.644Z,56.27
2022-07-28T10:15:11.535Z,56.89
2022-07-28T10:16:11.467Z,55.07
2022-07-28T10:17:11.398Z,55.36
2022-07-28T10:18:11.414Z,54.77
2022-07-28T10:19:11.390Z,55.07
2022-07-28T10:20:11.320Z,54.32
2022-07-28T10:21:11.376Z,54.71
2022-07-28T10:22:11.286Z,54.71
2022-07-28T10:23:11.262Z,53.54
2022-07-28T10:24:11.438Z,53.44
2022-07-28T10:25:11.202Z,53.64
2022-07-28T10:26:12.964Z,53.81
2022-07-28T10:27:11.363Z,54.84
2022-07-28T10:28:11.129Z,54.52
2022-07-28T10:29:11.134Z,55.41
2022-07-28T10:30:11.095Z,54.64
2022-07-28T10:31:11.181Z,54.17
2022-07-28T10:32:11.035Z,54.27
2022-07-28T10:33:11.201Z,54.90
2022-07-28T10:34:16.009Z,55.59
2022-07-28T10:35:10.967Z,55.52
2022-07-28T10:36:10.945Z,55.62
2022-07-28T10:37:10.943Z,56.22
2022-07-28T10:38:10.889Z,56.72
2022-07-28T10:39:11.041Z,56.49
2022-07-28T10:40:11.120Z,54.99
2022-07-28T10:41:10.825Z,54.79
2022-07-28T10:42:10.781Z,55.29
2022-07-28T10:43:10.837Z,55.59
2022-07-28T10:44:10.730Z,55.29
2022-07-28T10:45:10.774Z,54.99
2022-07-28T10:46:15.604Z,55.29
2022-07-28T10:47:17.883Z,54.90
2022-07-28T10:48:10.845Z,54.79
2022-07-28T10:49:10.648Z,55.19
2022-07-28T10:50:10.578Z,54.79
2022-07-28T10:51:10.624Z,53.59
2022-07-28T10:52:30.457Z,53.89
2022-07-28T10:53:10.514Z,54.42
2022-07-28T10:54:10.511Z,54.32
2022-07-28T10:55:10.473Z,55.02
2022-07-28T10:56:10.428Z,55.02
2022-07-28T10:57:10.589Z,54.82
2022-07-28T10:58:11.116Z,55.02
2022-07-28T10:59:10.351Z,55.52
2022-07-28T11:00:15.540Z,55.65
2022-07-28T11:01:17.059Z,55.05
2022-07-28T11:02:10.371Z,54.82
2022-07-28T11:03:13.916Z,54.82
2022-07-28T11:04:10.226Z,54.72
2022-07-28T11:05:10.192Z,54.14
2022-07-28T11:06:10.173Z,54.64
2022-07-28T11:07:10.142Z,54.92
2022-07-28T11:08:10.113Z,54.82
2022-07-28T11:09:10.318Z,55.12
2022-07-28T11:10:10.081Z,54.92
2022-07-28T11:11:10.049Z,54.82
2022-07-28T11:12:10.183Z,55.22
2022-07-28T11:13:14.398Z,55.52
2022-07-28T11:14:09.963Z,56.22
2022-07-28T11:15:18.300Z,55.89
2022-07-28T11:16:09.915Z,54.69
2022-07-28T11:17:10.167Z,53.67
2022-07-28T11:18:09.862Z,53.57
2022-07-28T11:19:40.598Z,54.57
2022-07-28T11:20:27.311Z,54.67
2022-07-28T11:21:09.828Z,54.47
2022-07-28T11:22:09.757Z,54.44
2022-07-28T11:23:09.731Z,54.04
2022-07-28T11:24:09.710Z,53.54
2022-07-28T11:25:21.000Z,52.57
2022-07-28T11:26:09.750Z,51.64
2022-07-28T11:27:09.635Z,51.87
2022-07-28T11:28:09.612Z,52.89
2022-07-28T11:29:09.581Z,53.12
2022-07-28T11:30:09.552Z,53.42
2022-07-28T11:31:09.657Z,53.22
2022-07-28T11:32:09.557Z,53.82
2022-07-28T11:33:09.537Z,53.19
2022-07-28T11:34:09.453Z,53.30
2022-07-28T11:35:09.436Z,52.49
2022-07-28T11:36:09.398Z,52.69
2022-07-28T11:37:09.455Z,53.19
2022-07-28T11:38:09.356Z,53.02
2022-07-28T11:39:09.364Z,53.72
2022-07-28T11:40:09.302Z,53.49
2022-07-28T11:41:09.267Z,52.49
2022-07-28T11:42:09.308Z,52.89
2022-07-28T11:43:09.349Z,51.47
2022-07-28T11:44:09.192Z,52.69
2022-07-28T11:45:09.165Z,53.09
2022-07-28T11:46:11.435Z,52.99
2022-07-28T11:47:09.118Z,53.52
2022-07-28T11:48:09.143Z,53.19
2022-07-28T11:49:14.886Z,52.80
2022-07-28T11:50:09.034Z,51.89
2022-07-28T11:51:09.038Z,52.97
2022-07-28T11:52:08.987Z,52.87
2022-07-28T11:53:09.007Z,51.47
2022-07-28T11:54:08.935Z,51.07
2022-07-28T11:55:08.909Z,50.35
2022-07-28T11:56:08.984Z,51.04
2022-07-28T11:57:08.860Z,51.04
2022-07-28T11:58:08.886Z,50.92
2022-07-28T11:59:08.800Z,51.62
2022-07-28T12:00:08.780Z,52.12
2022-07-28T12:01:08.749Z,51.20
2022-07-28T12:02:08.777Z,51.27
2022-07-28T12:03:08.754Z,51.57
2022-07-28T12:04:10.433Z,50.47
2022-07-28T12:05:08.732Z,50.17
2022-07-28T12:06:08.641Z,50.57
2022-07-28T12:07:08.598Z,50.97
2022-07-28T12:08:08.669Z,51.67
2022-07-28T12:09:08.600Z,51.47
2022-07-28T12:10:08.527Z,51.15
2022-07-28T12:11:08.513Z,50.65
2022-07-28T12:12:08.473Z,49.65
2022-07-28T12:13:08.996Z,50.25
2022-07-28T12:14:08.430Z,49.85
2022-07-28T12:15:08.397Z,49.73
2022-07-28T12:16:08.383Z,49.83
2022-07-28T12:17:08.385Z,49.30
2022-07-28T12:18:08.321Z,48.41
2022-07-28T12:19:08.378Z,48.71
2022-07-28T12:20:14.039Z,49.10
2022-07-28T12:21:08.249Z,47.61
2022-07-28T12:22:08.227Z,47.79
2022-07-28T12:23:08.214Z,46.59
2022-07-28T12:24:08.866Z,46.20
2022-07-28T12:25:13.331Z,46.09
2022-07-28T12:26:10.193Z,46.61
2022-07-28T12:27:08.113Z,46.31
2022-07-28T12:28:08.081Z,46.20
2022-07-28T12:29:08.585Z,47.29
2022-07-28T12:30:08.947Z,47.59
2022-07-28T12:31:08.008Z,47.91
2022-07-28T12:32:08.037Z,48.11
2022-07-28T12:33:07.963Z,47.93
2022-07-28T12:34:07.937Z,47.71
2022-07-28T12:35:07.965Z,48.43
2022-07-28T12:36:07.885Z,48.53
2022-07-28T12:37:07.860Z,48.93
2022-07-28T12:38:07.846Z,49.03
2022-07-28T12:39:12.730Z,49.53
2022-07-28T12:40:07.846Z,49.73
2022-07-28T12:41:07.913Z,49.13
2022-07-28T12:42:07.742Z,49.85
2022-07-28T12:43:07.716Z,50.05
2022-07-28T12:44:07.692Z,51.25
2022-07-28T12:45:07.682Z,50.74
2022-07-28T12:46:07.781Z,49.75
2022-07-28T12:47:08.430Z,49.98
2022-07-28T12:48:07.598Z,49.98
2022-07-28T12:49:07.632Z,50.27
2022-07-28T12:50:07.549Z,50.47
2022-07-28T12:51:07.663Z,50.15
2022-07-28T12:52:07.497Z,49.98